sensor_id;sensor_type;location;lat;lon;timestamp;P1;durP1;ratioP1;P2;durP2;ratioP2
71759;SDS011;59919;48.112;16.280;2023-11-21T00:02:09;3.28;;;2.00;;
71759;SDS011;59919;48.112;16.280;2023-11-21T00:04:43;3.70;;;1.73;;
71759;SDS011;59919;48.112;16.280;2023-11-21T00:07:14;3.50;;;2.22;;
71759;SDS011;59919;48.112;16.280;2023-11-21T00:09:45;2.85;;;1.77;;
71759;SDS011;59919;48.112;16.280;2023-11-21T00:12:19;2.90;;;1.75;;
71759;SDS011;59919;48.112;16.280;2023-11-21T00:14:51;2.58;;;1.63;;
71759;SDS011;59919;48.112;16.280;2023-11-21T00:17:25;3.20;;;1.70;;
71759;SDS011;59919;48.112;16.280;2023-11-21T00:19:56;3.83;;;1.90;;
71759;SDS011;59919;48.112;16.280;2023-11-21T00:22:27;2.55;;;1.58;;
71759;SDS011;59919;48.112;16.280;2023-11-21T00:24:58;2.28;;;1.55;;
71759;SDS011;59919;48.112;16.280;2023-11-21T00:27:29;2.33;;;1.90;;
71759;SDS011;59919;48.112;16.280;2023-11-21T00:30:00;2.40;;;1.55;;
71759;SDS011;59919;48.112;16.280;2023-11-21T00:32:40;3.20;;;1.80;;
71759;SDS011;59919;48.112;16.280;2023-11-21T00:35:11;3.05;;;1.90;;
71759;SDS011;59919;48.112;16.280;2023-11-21T00:37:45;2.50;;;1.90;;
71759;SDS011;59919;48.112;16.280;2023-11-21T00:40:16;2.55;;;1.60;;
71759;SDS011;59919;48.112;16.280;2023-11-21T00:42:50;2.67;;;1.70;;
71759;SDS011;59919;48.112;16.280;2023-11-21T00:45:21;1.92;;;1.40;;
71759;SDS011;59919;48.112;16.280;2023-11-21T00:47:52;3.50;;;1.73;;
71759;SDS011;59919;48.112;16.280;2023-11-21T00:50:26;2.55;;;1.38;;
71759;SDS011;59919;48.112;16.280;2023-11-21T00:52:57;2.85;;;1.52;;
71759;SDS011;59919;48.112;16.280;2023-11-21T00:55:29;1.90;;;1.23;;
71759;SDS011;59919;48.112;16.280;2023-11-21T00:58:00;2.15;;;1.63;;
71759;SDS011;59919;48.112;16.280;2023-11-21T01:00:34;2.67;;;1.70;;
71759;SDS011;59919;48.112;16.280;2023-11-21T01:03:10;3.50;;;1.35;;
71759;SDS011;59919;48.112;16.280;2023-11-21T01:05:43;2.03;;;1.48;;
71759;SDS011;59919;48.112;16.280;2023-11-21T01:08:17;2.22;;;1.30;;
71759;SDS011;59919;48.112;16.280;2023-11-21T01:10:52;2.28;;;1.30;;
71759;SDS011;59919;48.112;16.280;2023-11-21T01:13:23;2.67;;;1.15;;
71759;SDS011;59919;48.112;16.280;2023-11-21T01:15:54;1.63;;;1.10;;
71759;SDS011;59919;48.112;16.280;2023-11-21T01:18:26;2.60;;;1.38;;
71759;SDS011;59919;48.112;16.280;2023-11-21T01:21:00;1.67;;;1.25;;
71759;SDS011;59919;48.112;16.280;2023-11-21T01:23:31;1.52;;;1.13;;
71759;SDS011;59919;48.112;16.280;2023-11-21T01:26:05;2.10;;;1.25;;
71759;SDS011;59919;48.112;16.280;2023-11-21T01:28:38;1.90;;;1.30;;
71759;SDS011;59919;48.112;16.280;2023-11-21T01:31:09;1.52;;;1.23;;
71759;SDS011;59919;48.112;16.280;2023-11-21T01:33:40;1.92;;;1.27;;
71759;SDS011;59919;48.112;16.280;2023-11-21T01:36:14;2.15;;;1.33;;
71759;SDS011;59919;48.112;16.280;2023-11-21T01:38:45;1.55;;;1.10;;
71759;SDS011;59919;48.112;16.280;2023-11-21T01:41:16;1.48;;;1.33;;
71759;SDS011;59919;48.112;16.280;2023-11-21T01:43:50;1.58;;;1.15;;
71759;SDS011;59919;48.112;16.280;2023-11-21T01:46:22;2.15;;;1.30;;
71759;SDS011;59919;48.112;16.280;2023-11-21T01:48:56;2.00;;;1.30;;
71759;SDS011;59919;48.112;16.280;2023-11-21T01:51:30;1.95;;;1.33;;
71759;SDS011;59919;48.112;16.280;2023-11-21T01:54:02;1.92;;;1.10;;
71759;SDS011;59919;48.112;16.280;2023-11-21T01:56:35;2.53;;;1.23;;
71759;SDS011;59919;48.112;16.280;2023-11-21T01:59:06;1.95;;;1.13;;
71759;SDS011;59919;48.112;16.280;2023-11-21T02:01:42;2.33;;;0.98;;
71759;SDS011;59919;48.112;16.280;2023-11-21T02:04:14;1.75;;;1.08;;
71759;SDS011;59919;48.112;16.280;2023-11-21T02:06:46;1.63;;;1.10;;
71759;SDS011;59919;48.112;16.280;2023-11-21T02:09:25;1.85;;;1.27;;
71759;SDS011;59919;48.112;16.280;2023-11-21T02:12:03;1.73;;;1.17;;
71759;SDS011;59919;48.112;16.280;2023-11-21T02:14:42;2.15;;;1.05;;
71759;SDS011;59919;48.112;16.280;2023-11-21T02:17:15;1.85;;;1.10;;
71759;SDS011;59919;48.112;16.280;2023-11-21T02:19:52;1.73;;;1.10;;
71759;SDS011;59919;48.112;16.280;2023-11-21T02:22:30;1.80;;;1.10;;
71759;SDS011;59919;48.112;16.280;2023-11-21T02:25:06;2.42;;;1.40;;
71759;SDS011;59919;48.112;16.280;2023-11-21T02:27:40;1.23;;;0.95;;
71759;SDS011;59919;48.112;16.280;2023-11-21T02:30:14;1.40;;;0.98;;
71759;SDS011;59919;48.112;16.280;2023-11-21T02:32:47;1.08;;;0.90;;
71759;SDS011;59919;48.112;16.280;2023-11-21T02:35:23;1.67;;;0.88;;
71759;SDS011;59919;48.112;16.280;2023-11-21T02:38:00;2.28;;;1.05;;
71759;SDS011;59919;48.112;16.280;2023-11-21T02:40:33;1.40;;;1.10;;
71759;SDS011;59919;48.112;16.280;2023-11-21T02:43:07;1.98;;;1.02;;
71759;SDS011;59919;48.112;16.280;2023-11-21T02:45:40;1.10;;;0.80;;
71759;SDS011;59919;48.112;16.280;2023-11-21T02:48:17;1.67;;;0.77;;
71759;SDS011;59919;48.112;16.280;2023-11-21T02:50:48;1.58;;;0.95;;
71759;SDS011;59919;48.112;16.280;2023-11-21T02:53:23;1.15;;;1.00;;
71759;SDS011;59919;48.112;16.280;2023-11-21T02:55:57;1.10;;;0.80;;
71759;SDS011;59919;48.112;16.280;2023-11-21T02:58:33;1.38;;;0.90;;
71759;SDS011;59919;48.112;16.280;2023-11-21T03:01:12;1.23;;;0.93;;
71759;SDS011;59919;48.112;16.280;2023-11-21T03:03:46;1.23;;;1.00;;
71759;SDS011;59919;48.112;16.280;2023-11-21T03:06:21;1.40;;;0.90;;
71759;SDS011;59919;48.112;16.280;2023-11-21T03:08:53;1.10;;;0.90;;
71759;SDS011;59919;48.112;16.280;2023-11-21T03:11:24;1.00;;;0.80;;
71759;SDS011;59919;48.112;16.280;2023-11-21T03:13:55;1.20;;;0.70;;
71759;SDS011;59919;48.112;16.280;2023-11-21T03:16:28;1.90;;;0.93;;
71759;SDS011;59919;48.112;16.280;2023-11-21T03:18:59;2.35;;;0.73;;
71759;SDS011;59919;48.112;16.280;2023-11-21T03:21:33;2.70;;;1.02;;
71759;SDS011;59919;48.112;16.280;2023-11-21T03:24:07;1.30;;;0.80;;
71759;SDS011;59919;48.112;16.280;2023-11-21T03:26:49;1.83;;;1.00;;
71759;SDS011;59919;48.112;16.280;2023-11-21T03:29:21;1.10;;;0.95;;
71759;SDS011;59919;48.112;16.280;2023-11-21T03:31:55;1.00;;;0.80;;
71759;SDS011;59919;48.112;16.280;2023-11-21T03:34:26;2.63;;;0.90;;
71759;SDS011;59919;48.112;16.280;2023-11-21T03:36:58;1.77;;;0.85;;
71759;SDS011;59919;48.112;16.280;2023-11-21T03:39:29;1.88;;;1.00;;
71759;SDS011;59919;48.112;16.280;2023-11-21T03:42:00;1.80;;;0.80;;
71759;SDS011;59919;48.112;16.280;2023-11-21T03:44:35;2.17;;;0.90;;
71759;SDS011;59919;48.112;16.280;2023-11-21T03:47:06;1.90;;;1.00;;
71759;SDS011;59919;48.112;16.280;2023-11-21T03:49:39;1.10;;;0.82;;
71759;SDS011;59919;48.112;16.280;2023-11-21T03:52:10;1.30;;;0.80;;
71759;SDS011;59919;48.112;16.280;2023-11-21T03:54:44;1.05;;;0.70;;
71759;SDS011;59919;48.112;16.280;2023-11-21T03:57:17;2.92;;;0.90;;
71759;SDS011;59919;48.112;16.280;2023-11-21T03:59:48;1.38;;;0.77;;
71759;SDS011;59919;48.112;16.280;2023-11-21T04:02:21;1.05;;;0.90;;
71759;SDS011;59919;48.112;16.280;2023-11-21T04:04:52;1.00;;;0.70;;
71759;SDS011;59919;48.112;16.280;2023-11-21T04:07:24;1.52;;;0.80;;
71759;SDS011;59919;48.112;16.280;2023-11-21T04:09:59;1.20;;;0.88;;
71759;SDS011;59919;48.112;16.280;2023-11-21T04:12:33;2.05;;;0.77;;
71759;SDS011;59919;48.112;16.280;2023-11-21T04:15:04;1.70;;;1.08;;
71759;SDS011;59919;48.112;16.280;2023-11-21T04:17:36;0.60;;;0.60;;
71759;SDS011;59919;48.112;16.280;2023-11-21T04:20:10;1.50;;;0.70;;
71759;SDS011;59919;48.112;16.280;2023-11-21T04:22:44;0.80;;;0.63;;
71759;SDS011;59919;48.112;16.280;2023-11-21T04:25:15;1.20;;;0.70;;
71759;SDS011;59919;48.112;16.280;2023-11-21T04:27:49;1.35;;;0.80;;
71759;SDS011;59919;48.112;16.280;2023-11-21T04:30:25;1.25;;;0.70;;
71759;SDS011;59919;48.112;16.280;2023-11-21T04:32:56;1.45;;;0.90;;
71759;SDS011;59919;48.112;16.280;2023-11-21T04:35:27;2.20;;;0.80;;
71759;SDS011;59919;48.112;16.280;2023-11-21T04:38:01;1.23;;;0.60;;
71759;SDS011;59919;48.112;16.280;2023-11-21T04:40:33;0.95;;;0.60;;
71759;SDS011;59919;48.112;16.280;2023-11-21T04:43:06;1.27;;;0.65;;
71759;SDS011;59919;48.112;16.280;2023-11-21T04:45:37;0.93;;;0.50;;
71759;SDS011;59919;48.112;16.280;2023-11-21T04:48:11;0.90;;;0.80;;
71759;SDS011;59919;48.112;16.280;2023-11-21T04:50:47;1.83;;;0.80;;
71759;SDS011;59919;48.112;16.280;2023-11-21T04:53:21;0.70;;;0.60;;
71759;SDS011;59919;48.112;16.280;2023-11-21T04:55:55;1.58;;;0.60;;
71759;SDS011;59919;48.112;16.280;2023-11-21T04:58:26;1.63;;;0.75;;
71759;SDS011;59919;48.112;16.280;2023-11-21T05:00:57;1.40;;;0.90;;
71759;SDS011;59919;48.112;16.280;2023-11-21T05:03:28;1.38;;;0.70;;
71759;SDS011;59919;48.112;16.280;2023-11-21T05:06:02;1.77;;;0.90;;
71759;SDS011;59919;48.112;16.280;2023-11-21T05:08:35;1.02;;;0.80;;
71759;SDS011;59919;48.112;16.280;2023-11-21T05:11:07;1.20;;;0.70;;
71759;SDS011;59919;48.112;16.280;2023-11-21T05:13:41;0.95;;;0.63;;
71759;SDS011;59919;48.112;16.280;2023-11-21T05:16:12;1.33;;;0.60;;
71759;SDS011;59919;48.112;16.280;2023-11-21T05:18:45;0.95;;;0.70;;
71759;SDS011;59919;48.112;16.280;2023-11-21T05:21:18;1.42;;;0.75;;
71759;SDS011;59919;48.112;16.280;2023-11-21T05:23:51;0.95;;;0.45;;
71759;SDS011;59919;48.112;16.280;2023-11-21T05:26:22;0.73;;;0.60;;
71759;SDS011;59919;48.112;16.280;2023-11-21T05:28:56;1.80;;;0.90;;
71759;SDS011;59919;48.112;16.280;2023-11-21T05:31:27;1.75;;;0.90;;
71759;SDS011;59919;48.112;16.280;2023-11-21T05:34:00;0.80;;;0.65;;
71759;SDS011;59919;48.112;16.280;2023-11-21T05:36:34;1.42;;;0.70;;
71759;SDS011;59919;48.112;16.280;2023-11-21T05:39:05;1.00;;;0.75;;
71759;SDS011;59919;48.112;16.280;2023-11-21T05:41:36;1.20;;;0.70;;
71759;SDS011;59919;48.112;16.280;2023-11-21T05:44:09;1.33;;;0.50;;
71759;SDS011;59919;48.112;16.280;2023-11-21T05:46:40;1.50;;;0.80;;
71759;SDS011;59919;48.112;16.280;2023-11-21T05:49:13;1.90;;;0.70;;
71759;SDS011;59919;48.112;16.280;2023-11-21T05:51:44;1.25;;;0.70;;
71759;SDS011;59919;48.112;16.280;2023-11-21T05:54:15;1.00;;;0.68;;
71759;SDS011;59919;48.112;16.280;2023-11-21T05:56:47;1.00;;;0.73;;
71759;SDS011;59919;48.112;16.280;2023-11-21T05:59:21;1.02;;;0.60;;
71759;SDS011;59919;48.112;16.280;2023-11-21T06:01:52;0.95;;;0.50;;
71759;SDS011;59919;48.112;16.280;2023-11-21T06:04:25;1.08;;;0.68;;
71759;SDS011;59919;48.112;16.280;2023-11-21T06:06:58;1.70;;;0.60;;
71759;SDS011;59919;48.112;16.280;2023-11-21T06:09:33;1.38;;;0.60;;
71759;SDS011;59919;48.112;16.280;2023-11-21T06:12:10;1.75;;;0.80;;
71759;SDS011;59919;48.112;16.280;2023-11-21T06:14:41;1.05;;;0.75;;
71759;SDS011;59919;48.112;16.280;2023-11-21T06:17:12;0.90;;;0.70;;
71759;SDS011;59919;48.112;16.280;2023-11-21T06:19:44;2.10;;;0.80;;
71759;SDS011;59919;48.112;16.280;2023-11-21T06:22:17;1.65;;;0.70;;
71759;SDS011;59919;48.112;16.280;2023-11-21T06:24:50;2.55;;;0.80;;
71759;SDS011;59919;48.112;16.280;2023-11-21T06:27:25;2.17;;;1.05;;
71759;SDS011;59919;48.112;16.280;2023-11-21T06:29:58;2.05;;;0.80;;
71759;SDS011;59919;48.112;16.280;2023-11-21T06:32:29;0.85;;;0.73;;
71759;SDS011;59919;48.112;16.280;2023-11-21T06:35:00;1.98;;;0.70;;
71759;SDS011;59919;48.112;16.280;2023-11-21T06:37:32;1.60;;;0.68;;
71759;SDS011;59919;48.112;16.280;2023-11-21T06:40:04;1.88;;;0.70;;
71759;SDS011;59919;48.112;16.280;2023-11-21T06:42:36;2.35;;;0.90;;
71759;SDS011;59919;48.112;16.280;2023-11-21T06:45:15;0.73;;;0.60;;
71759;SDS011;59919;48.112;16.280;2023-11-21T06:47:48;2.00;;;0.82;;
71759;SDS011;59919;48.112;16.280;2023-11-21T06:50:19;2.85;;;0.65;;
71759;SDS011;59919;48.112;16.280;2023-11-21T06:52:51;2.33;;;0.70;;
71759;SDS011;59919;48.112;16.280;2023-11-21T06:55:22;2.25;;;0.90;;
71759;SDS011;59919;48.112;16.280;2023-11-21T06:57:53;1.88;;;0.68;;
71759;SDS011;59919;48.112;16.280;2023-11-21T07:00:25;1.67;;;0.85;;
71759;SDS011;59919;48.112;16.280;2023-11-21T07:02:58;1.73;;;0.70;;
71759;SDS011;59919;48.112;16.280;2023-11-21T07:05:29;1.98;;;0.80;;
71759;SDS011;59919;48.112;16.280;2023-11-21T07:08:00;2.25;;;0.70;;
71759;SDS011;59919;48.112;16.280;2023-11-21T07:10:35;1.58;;;1.00;;
71759;SDS011;59919;48.112;16.280;2023-11-21T07:13:07;1.67;;;0.70;;
71759;SDS011;59919;48.112;16.280;2023-11-21T07:15:44;0.95;;;0.50;;
71759;SDS011;59919;48.112;16.280;2023-11-21T07:18:14;1.48;;;0.65;;
71759;SDS011;59919;48.112;16.280;2023-11-21T07:20:51;1.25;;;0.88;;
71759;SDS011;59919;48.112;16.280;2023-11-21T07:23:25;1.75;;;0.80;;
71759;SDS011;59919;48.112;16.280;2023-11-21T07:26:01;2.10;;;1.48;;
71759;SDS011;59919;48.112;16.280;2023-11-21T07:28:33;4.32;;;2.10;;
71759;SDS011;59919;48.112;16.280;2023-11-21T07:31:09;3.60;;;2.20;;
71759;SDS011;59919;48.112;16.280;2023-11-21T07:33:43;4.32;;;2.55;;
71759;SDS011;59919;48.112;16.280;2023-11-21T07:36:14;3.58;;;2.10;;
71759;SDS011;59919;48.112;16.280;2023-11-21T07:38:46;4.65;;;2.47;;
71759;SDS011;59919;48.112;16.280;2023-11-21T07:41:20;4.07;;;2.42;;
71759;SDS011;59919;48.112;16.280;2023-11-21T07:43:53;3.17;;;2.25;;
71759;SDS011;59919;48.112;16.280;2023-11-21T07:46:26;4.10;;;2.25;;
71759;SDS011;59919;48.112;16.280;2023-11-21T07:48:58;4.20;;;2.40;;
71759;SDS011;59919;48.112;16.280;2023-11-21T07:51:32;4.30;;;2.55;;
71759;SDS011;59919;48.112;16.280;2023-11-21T07:54:03;3.60;;;2.28;;
71759;SDS011;59919;48.112;16.280;2023-11-21T07:56:34;4.05;;;2.38;;
71759;SDS011;59919;48.112;16.280;2023-11-21T07:59:05;3.42;;;2.15;;
71759;SDS011;59919;48.112;16.280;2023-11-21T08:01:36;4.43;;;2.38;;
71759;SDS011;59919;48.112;16.280;2023-11-21T08:04:07;3.58;;;1.95;;
71759;SDS011;59919;48.112;16.280;2023-11-21T08:06:40;2.97;;;2.00;;
71759;SDS011;59919;48.112;16.280;2023-11-21T08:09:14;4.00;;;2.10;;
71759;SDS011;59919;48.112;16.280;2023-11-21T08:11:48;4.38;;;2.13;;
71759;SDS011;59919;48.112;16.280;2023-11-21T08:14:19;3.60;;;2.10;;
71759;SDS011;59919;48.112;16.280;2023-11-21T08:16:51;3.00;;;1.83;;
71759;SDS011;59919;48.112;16.280;2023-11-21T08:19:25;2.65;;;1.83;;
71759;SDS011;59919;48.112;16.280;2023-11-21T08:21:57;4.40;;;2.10;;
71759;SDS011;59919;48.112;16.280;2023-11-21T08:24:33;2.90;;;1.67;;
71759;SDS011;59919;48.112;16.280;2023-11-21T08:27:10;2.28;;;1.75;;
71759;SDS011;59919;48.112;16.280;2023-11-21T08:29:41;4.28;;;1.70;;
71759;SDS011;59919;48.112;16.280;2023-11-21T08:32:15;4.40;;;2.10;;
71759;SDS011;59919;48.112;16.280;2023-11-21T08:34:47;2.88;;;1.67;;
71759;SDS011;59919;48.112;16.280;2023-11-21T08:37:21;3.15;;;1.63;;
71759;SDS011;59919;48.112;16.280;2023-11-21T08:39:52;4.05;;;1.88;;
71759;SDS011;59919;48.112;16.280;2023-11-21T08:42:26;3.60;;;1.52;;
71759;SDS011;59919;48.112;16.280;2023-11-21T08:45:03;2.10;;;1.60;;
71759;SDS011;59919;48.112;16.280;2023-11-21T08:47:39;2.55;;;1.60;;
71759;SDS011;59919;48.112;16.280;2023-11-21T08:50:10;2.58;;;1.48;;
71759;SDS011;59919;48.112;16.280;2023-11-21T08:52:44;3.13;;;1.58;;
71759;SDS011;59919;48.112;16.280;2023-11-21T08:55:19;2.97;;;1.73;;
71759;SDS011;59919;48.112;16.280;2023-11-21T08:57:52;2.05;;;1.63;;
71759;SDS011;59919;48.112;16.280;2023-11-21T09:00:26;4.38;;;1.60;;
71759;SDS011;59919;48.112;16.280;2023-11-21T09:03:01;2.33;;;1.30;;
71759;SDS011;59919;48.112;16.280;2023-11-21T09:05:41;2.97;;;1.50;;
71759;SDS011;59919;48.112;16.280;2023-11-21T09:08:15;2.55;;;1.50;;
71759;SDS011;59919;48.112;16.280;2023-11-21T09:10:48;2.08;;;1.58;;
71759;SDS011;59919;48.112;16.280;2023-11-21T09:13:22;2.80;;;1.73;;
71759;SDS011;59919;48.112;16.280;2023-11-21T09:15:55;1.83;;;1.25;;
71759;SDS011;59919;48.112;16.280;2023-11-21T09:18:29;1.83;;;1.25;;
71759;SDS011;59919;48.112;16.280;2023-11-21T09:21:06;2.50;;;1.50;;
71759;SDS011;59919;48.112;16.280;2023-11-21T09:23:37;2.88;;;1.25;;
71759;SDS011;59919;48.112;16.280;2023-11-21T09:26:13;3.40;;;1.50;;
71759;SDS011;59919;48.112;16.280;2023-11-21T09:28:46;2.47;;;1.35;;
71759;SDS011;59919;48.112;16.280;2023-11-21T09:31:20;2.50;;;1.30;;
71759;SDS011;59919;48.112;16.280;2023-11-21T09:33:55;3.33;;;2.25;;
71759;SDS011;59919;48.112;16.280;2023-11-21T09:36:29;1.52;;;1.20;;
71759;SDS011;59919;48.112;16.280;2023-11-21T09:39:01;2.55;;;1.50;;
71759;SDS011;59919;48.112;16.280;2023-11-21T09:41:43;2.00;;;1.40;;
71759;SDS011;59919;48.112;16.280;2023-11-21T09:44:26;1.95;;;1.40;;
71759;SDS011;59919;48.112;16.280;2023-11-21T09:47:23;2.70;;;1.35;;
71759;SDS011;59919;48.112;16.280;2023-11-21T09:49:57;3.78;;;1.40;;
71759;SDS011;59919;48.112;16.280;2023-11-21T09:52:31;2.97;;;1.50;;
71759;SDS011;59919;48.112;16.280;2023-11-21T09:55:06;2.85;;;1.42;;
71759;SDS011;59919;48.112;16.280;2023-11-21T09:57:46;3.35;;;1.35;;
71759;SDS011;59919;48.112;16.280;2023-11-21T10:00:19;2.13;;;1.30;;
71759;SDS011;59919;48.112;16.280;2023-11-21T10:02:54;1.90;;;1.40;;
71759;SDS011;59919;48.112;16.280;2023-11-21T10:05:30;2.08;;;1.35;;
71759;SDS011;59919;48.112;16.280;2023-11-21T10:08:07;2.47;;;1.25;;
71759;SDS011;59919;48.112;16.280;2023-11-21T10:10:43;2.42;;;1.20;;
71759;SDS011;59919;48.112;16.280;2023-11-21T10:13:16;3.00;;;1.30;;
71759;SDS011;59919;48.112;16.280;2023-11-21T10:15:50;1.58;;;1.10;;
71759;SDS011;59919;48.112;16.280;2023-11-21T10:18:23;2.95;;;1.38;;
71759;SDS011;59919;48.112;16.280;2023-11-21T10:20:55;1.33;;;1.13;;
71759;SDS011;59919;48.112;16.280;2023-11-21T10:23:27;1.55;;;1.27;;
71759;SDS011;59919;48.112;16.280;2023-11-21T10:25:58;2.20;;;1.15;;
71759;SDS011;59919;48.112;16.280;2023-11-21T10:28:30;2.78;;;1.30;;
71759;SDS011;59919;48.112;16.280;2023-11-21T10:31:08;2.20;;;1.27;;
71759;SDS011;59919;48.112;16.280;2023-11-21T10:33:40;2.03;;;1.20;;
71759;SDS011;59919;48.112;16.280;2023-11-21T10:36:11;1.75;;;1.15;;
71759;SDS011;59919;48.112;16.280;2023-11-21T10:38:42;2.75;;;1.48;;
71759;SDS011;59919;48.112;16.280;2023-11-21T10:41:13;1.50;;;1.10;;
71759;SDS011;59919;48.112;16.280;2023-11-21T10:43:52;2.03;;;1.00;;
71759;SDS011;59919;48.112;16.280;2023-11-21T10:46:25;2.35;;;1.20;;
71759;SDS011;59919;48.112;16.280;2023-11-21T10:48:57;1.00;;;0.90;;
71759;SDS011;59919;48.112;16.280;2023-11-21T10:51:31;1.77;;;1.10;;
71759;SDS011;59919;48.112;16.280;2023-11-21T10:54:02;2.13;;;1.05;;
71759;SDS011;59919;48.112;16.280;2023-11-21T10:56:33;1.77;;;1.10;;
71759;SDS011;59919;48.112;16.280;2023-11-21T10:59:12;1.00;;;0.90;;
71759;SDS011;59919;48.112;16.280;2023-11-21T11:01:46;1.95;;;1.17;;
71759;SDS011;59919;48.112;16.280;2023-11-21T11:04:22;1.65;;;1.10;;
71759;SDS011;59919;48.112;16.280;2023-11-21T11:06:57;1.45;;;1.02;;
71759;SDS011;59919;48.112;16.280;2023-11-21T11:09:35;1.20;;;0.95;;
71759;SDS011;59919;48.112;16.280;2023-11-21T11:12:06;1.35;;;0.93;;
71759;SDS011;59919;48.112;16.280;2023-11-21T11:14:40;1.10;;;0.90;;
71759;SDS011;59919;48.112;16.280;2023-11-21T11:17:14;1.42;;;0.90;;
71759;SDS011;59919;48.112;16.280;2023-11-21T11:19:46;1.48;;;0.85;;
71759;SDS011;59919;48.112;16.280;2023-11-21T11:28:20;1.08;;;0.95;;
71759;SDS011;59919;48.112;16.280;2023-11-21T11:33:55;1.58;;;1.10;;
71759;SDS011;59919;48.112;16.280;2023-11-21T11:36:54;1.58;;;1.08;;
71759;SDS011;59919;48.112;16.280;2023-11-21T11:42:18;1.70;;;1.35;;
71759;SDS011;59919;48.112;16.280;2023-11-21T11:44:57;1.45;;;1.00;;
71759;SDS011;59919;48.112;16.280;2023-11-21T11:47:28;1.23;;;1.00;;
71759;SDS011;59919;48.112;16.280;2023-11-21T11:50:08;0.80;;;0.70;;
71759;SDS011;59919;48.112;16.280;2023-11-21T11:52:52;1.92;;;1.00;;
71759;SDS011;59919;48.112;16.280;2023-11-21T11:55:25;1.95;;;0.75;;
71759;SDS011;59919;48.112;16.280;2023-11-21T11:58:01;1.80;;;0.90;;
71759;SDS011;59919;48.112;16.280;2023-11-21T12:03:08;1.05;;;0.77;;
71759;SDS011;59919;48.112;16.280;2023-11-21T12:05:42;1.15;;;0.80;;
71759;SDS011;59919;48.112;16.280;2023-11-21T12:08:18;1.00;;;0.80;;
71759;SDS011;59919;48.112;16.280;2023-11-21T12:11:01;1.00;;;0.73;;
71759;SDS011;59919;48.112;16.280;2023-11-21T12:13:32;1.83;;;0.90;;
71759;SDS011;59919;48.112;16.280;2023-11-21T12:16:09;1.08;;;0.80;;
71759;SDS011;59919;48.112;16.280;2023-11-21T12:18:46;1.35;;;0.95;;
71759;SDS011;59919;48.112;16.280;2023-11-21T12:21:24;1.00;;;0.90;;
71759;SDS011;59919;48.112;16.280;2023-11-21T12:24:00;1.38;;;0.90;;
71759;SDS011;59919;48.112;16.280;2023-11-21T12:26:31;1.98;;;0.90;;
71759;SDS011;59919;48.112;16.280;2023-11-21T12:29:02;1.20;;;0.82;;
71759;SDS011;59919;48.112;16.280;2023-11-21T12:31:35;2.20;;;0.88;;
71759;SDS011;59919;48.112;16.280;2023-11-21T12:34:13;1.03;;;0.80;;
71759;SDS011;59919;48.112;16.280;2023-11-21T12:36:47;0.88;;;0.77;;
71759;SDS011;59919;48.112;16.280;2023-11-21T12:39:19;0.90;;;0.80;;
71759;SDS011;59919;48.112;16.280;2023-11-21T12:41:53;1.00;;;0.70;;
71759;SDS011;59919;48.112;16.280;2023-11-21T12:44:25;0.75;;;0.68;;
71759;SDS011;59919;48.112;16.280;2023-11-21T12:46:56;1.17;;;1.00;;
71759;SDS011;59919;48.112;16.280;2023-11-21T12:49:27;0.90;;;0.80;;
71759;SDS011;59919;48.112;16.280;2023-11-21T12:52:03;1.42;;;0.90;;
71759;SDS011;59919;48.112;16.280;2023-11-21T12:54:37;1.73;;;0.75;;
71759;SDS011;59919;48.112;16.280;2023-11-21T12:57:08;1.45;;;1.00;;
71759;SDS011;59919;48.112;16.280;2023-11-21T12:59:41;1.45;;;1.00;;
71759;SDS011;59919;48.112;16.280;2023-11-21T13:02:14;1.08;;;0.95;;
71759;SDS011;59919;48.112;16.280;2023-11-21T13:04:51;1.73;;;0.80;;
71759;SDS011;59919;48.112;16.280;2023-11-21T13:07:25;1.65;;;0.70;;
71759;SDS011;59919;48.112;16.280;2023-11-21T13:09:57;1.48;;;1.00;;
71759;SDS011;59919;48.112;16.280;2023-11-21T13:12:30;1.15;;;0.95;;
71759;SDS011;59919;48.112;16.280;2023-11-21T13:15:05;1.75;;;1.10;;
71759;SDS011;59919;48.112;16.280;2023-11-21T13:17:39;0.98;;;0.80;;
71759;SDS011;59919;48.112;16.280;2023-11-21T13:20:15;1.25;;;0.90;;
71759;SDS011;59919;48.112;16.280;2023-11-21T13:22:51;2.33;;;1.10;;
71759;SDS011;59919;48.112;16.280;2023-11-21T13:25:34;1.85;;;1.08;;
71759;SDS011;59919;48.112;16.280;2023-11-21T13:28:05;1.38;;;0.95;;
71759;SDS011;59919;48.112;16.280;2023-11-21T13:30:40;1.63;;;1.00;;
71759;SDS011;59919;48.112;16.280;2023-11-21T13:35:58;1.00;;;0.90;;
71759;SDS011;59919;48.112;16.280;2023-11-21T13:38:29;1.30;;;0.80;;
71759;SDS011;59919;48.112;16.280;2023-11-21T13:41:02;1.33;;;0.90;;
71759;SDS011;59919;48.112;16.280;2023-11-21T13:43:37;1.13;;;0.80;;
71759;SDS011;59919;48.112;16.280;2023-11-21T13:46:09;1.75;;;1.13;;
71759;SDS011;59919;48.112;16.280;2023-11-21T13:48:51;2.88;;;1.00;;
71759;SDS011;59919;48.112;16.280;2023-11-21T13:51:26;3.33;;;1.20;;
71759;SDS011;59919;48.112;16.280;2023-11-21T13:54:08;3.40;;;0.90;;
71759;SDS011;59919;48.112;16.280;2023-11-21T13:56:41;1.33;;;0.90;;
71759;SDS011;59919;48.112;16.280;2023-11-21T13:59:15;1.58;;;1.00;;
71759;SDS011;59919;48.112;16.280;2023-11-21T14:01:56;1.55;;;1.10;;
71759;SDS011;59919;48.112;16.280;2023-11-21T14:04:30;3.25;;;1.20;;
71759;SDS011;59919;48.112;16.280;2023-11-21T14:07:01;1.20;;;1.10;;
71759;SDS011;59919;48.112;16.280;2023-11-21T14:09:51;1.10;;;0.90;;
71759;SDS011;59919;48.112;16.280;2023-11-21T14:12:23;2.42;;;1.30;;
71759;SDS011;59919;48.112;16.280;2023-11-21T14:14:54;1.70;;;0.85;;
71759;SDS011;59919;48.112;16.280;2023-11-21T14:17:25;2.75;;;1.25;;
71759;SDS011;59919;48.112;16.280;2023-11-21T14:19:59;1.20;;;1.10;;
71759;SDS011;59919;48.112;16.280;2023-11-21T14:22:32;1.58;;;1.05;;
71759;SDS011;59919;48.112;16.280;2023-11-21T14:25:03;3.40;;;0.98;;
71759;SDS011;59919;48.112;16.280;2023-11-21T14:27:40;2.17;;;1.10;;
71759;SDS011;59919;48.112;16.280;2023-11-21T14:30:17;1.48;;;0.90;;
71759;SDS011;59919;48.112;16.280;2023-11-21T14:32:50;3.38;;;1.23;;
71759;SDS011;59919;48.112;16.280;2023-11-21T14:35:21;2.15;;;0.88;;
71759;SDS011;59919;48.112;16.280;2023-11-21T14:37:54;1.60;;;1.05;;
71759;SDS011;59919;48.112;16.280;2023-11-21T14:40:26;2.25;;;1.08;;
71759;SDS011;59919;48.112;16.280;2023-11-21T14:43:05;1.52;;;0.88;;
71759;SDS011;59919;48.112;16.280;2023-11-21T14:45:45;2.55;;;1.00;;
71759;SDS011;59919;48.112;16.280;2023-11-21T14:48:19;3.08;;;1.10;;
71759;SDS011;59919;48.112;16.280;2023-11-21T14:51:05;1.35;;;0.90;;
71759;SDS011;59919;48.112;16.280;2023-11-21T14:53:36;1.25;;;0.90;;
71759;SDS011;59919;48.112;16.280;2023-11-21T14:56:24;1.77;;;1.02;;
71759;SDS011;59919;48.112;16.280;2023-11-21T14:59:01;1.77;;;1.13;;
71759;SDS011;59919;48.112;16.280;2023-11-21T15:01:46;1.55;;;1.05;;
71759;SDS011;59919;48.112;16.280;2023-11-21T15:04:25;4.00;;;1.77;;
71759;SDS011;59919;48.112;16.280;2023-11-21T15:07:09;2.30;;;1.45;;
71759;SDS011;59919;48.112;16.280;2023-11-21T15:09:44;3.40;;;1.50;;
71759;SDS011;59919;48.112;16.280;2023-11-21T15:12:17;5.13;;;1.80;;
71759;SDS011;59919;48.112;16.280;2023-11-21T15:14:51;4.63;;;1.95;;
71759;SDS011;59919;48.112;16.280;2023-11-21T15:17:31;3.60;;;1.70;;
71759;SDS011;59919;48.112;16.280;2023-11-21T15:20:02;2.38;;;1.60;;
71759;SDS011;59919;48.112;16.280;2023-11-21T15:22:37;2.00;;;1.58;;
71759;SDS011;59919;48.112;16.280;2023-11-21T15:25:10;5.07;;;1.67;;
71759;SDS011;59919;48.112;16.280;2023-11-21T15:27:44;2.83;;;1.60;;
71759;SDS011;59919;48.112;16.280;2023-11-21T15:30:17;3.20;;;1.70;;